sensor_id;sensor_type;location;lat;lon;timestamp;P1;durP1;ratioP1;P2;durP2;ratioP2
12601;SDS011;30282;16.436;99.370;2023-08-01T00:00:05;31.20;;;12.23;;
12601;SDS011;30282;16.436;99.370;2023-08-01T00:02:35;24.13;;;10.17;;
12601;SDS011;30282;16.436;99.370;2023-08-01T00:05:05;25.37;;;7.90;;
12601;SDS011;30282;16.436;99.370;2023-08-01T00:07:36;26.20;;;8.10;;
12601;SDS011;30282;16.436;99.370;2023-08-01T00:10:05;31.57;;;9.03;;
12601;SDS011;30282;16.436;99.370;2023-08-01T00:12:34;29.87;;;8.90;;
12601;SDS011;30282;16.436;99.370;2023-08-01T00:15:04;20.47;;;8.30;;
12601;SDS011;30282;16.436;99.370;2023-08-01T00:17:34;25.40;;;9.20;;
12601;SDS011;30282;16.436;99.370;2023-08-01T00:20:04;22.63;;;8.50;;
12601;SDS011;30282;16.436;99.370;2023-08-01T00:22:34;21.33;;;8.57;;
12601;SDS011;30282;16.436;99.370;2023-08-01T00:25:05;30.50;;;9.40;;
12601;SDS011;30282;16.436;99.370;2023-08-01T00:27:34;27.33;;;10.03;;
12601;SDS011;30282;16.436;99.370;2023-08-01T00:30:04;22.90;;;8.93;;
12601;SDS011;30282;16.436;99.370;2023-08-01T00:32:34;24.93;;;8.93;;
12601;SDS011;30282;16.436;99.370;2023-08-01T00:35:03;25.47;;;9.17;;
12601;SDS011;30282;16.436;99.370;2023-08-01T00:37:33;29.23;;;10.50;;
12601;SDS011;30282;16.436;99.370;2023-08-01T00:40:04;26.63;;;9.33;;
12601;SDS011;30282;16.436;99.370;2023-08-01T00:42:35;31.17;;;9.83;;
12601;SDS011;30282;16.436;99.370;2023-08-01T00:45:05;30.93;;;11.67;;
12601;SDS011;30282;16.436;99.370;2023-08-01T00:47:35;24.80;;;8.73;;
12601;SDS011;30282;16.436;99.370;2023-08-01T00:50:04;27.07;;;9.83;;
12601;SDS011;30282;16.436;99.370;2023-08-01T00:52:34;23.73;;;9.60;;
12601;SDS011;30282;16.436;99.370;2023-08-01T00:55:06;21.60;;;8.13;;
12601;SDS011;30282;16.436;99.370;2023-08-01T00:57:36;23.03;;;9.97;;
12601;SDS011;30282;16.436;99.370;2023-08-01T01:00:05;30.93;;;9.87;;
12601;SDS011;30282;16.436;99.370;2023-08-01T01:02:35;22.27;;;9.23;;
12601;SDS011;30282;16.436;99.370;2023-08-01T01:05:05;20.73;;;9.63;;
12601;SDS011;30282;16.436;99.370;2023-08-01T01:07:34;21.50;;;9.30;;
12601;SDS011;30282;16.436;99.370;2023-08-01T01:10:06;22.20;;;9.70;;
12601;SDS011;30282;16.436;99.370;2023-08-01T01:12:36;28.70;;;10.03;;
12601;SDS011;30282;16.436;99.370;2023-08-01T01:15:05;21.57;;;9.60;;
12601;SDS011;30282;16.436;99.370;2023-08-01T01:17:35;26.13;;;9.70;;
12601;SDS011;30282;16.436;99.370;2023-08-01T01:20:04;27.40;;;9.67;;
12601;SDS011;30282;16.436;99.370;2023-08-01T01:22:35;27.67;;;9.77;;
12601;SDS011;30282;16.436;99.370;2023-08-01T01:25:05;20.13;;;8.53;;
12601;SDS011;30282;16.436;99.370;2023-08-01T01:27:36;25.37;;;9.20;;
12601;SDS011;30282;16.436;99.370;2023-08-01T01:30:06;49.20;;;10.43;;
12601;SDS011;30282;16.436;99.370;2023-08-01T01:32:36;27.07;;;8.70;;
12601;SDS011;30282;16.436;99.370;2023-08-01T01:35:05;24.83;;;9.47;;
12601;SDS011;30282;16.436;99.370;2023-08-01T01:37:36;24.03;;;9.33;;
12601;SDS011;30282;16.436;99.370;2023-08-01T01:40:06;21.60;;;8.77;;
12601;SDS011;30282;16.436;99.370;2023-08-01T01:42:36;22.60;;;9.20;;
12601;SDS011;30282;16.436;99.370;2023-08-01T01:45:05;28.60;;;9.30;;
12601;SDS011;30282;16.436;99.370;2023-08-01T01:47:35;22.60;;;9.97;;
12601;SDS011;30282;16.436;99.370;2023-08-01T01:50:04;24.93;;;8.80;;
12601;SDS011;30282;16.436;99.370;2023-08-01T01:52:34;34.13;;;9.47;;
12601;SDS011;30282;16.436;99.370;2023-08-01T01:55:05;23.83;;;9.90;;
12601;SDS011;30282;16.436;99.370;2023-08-01T01:57:35;24.80;;;8.70;;
12601;SDS011;30282;16.436;99.370;2023-08-01T02:00:04;26.50;;;9.37;;
12601;SDS011;30282;16.436;99.370;2023-08-01T02:02:35;30.07;;;9.03;;
12601;SDS011;30282;16.436;99.370;2023-08-01T02:05:05;19.90;;;8.70;;
12601;SDS011;30282;16.436;99.370;2023-08-01T02:07:36;23.90;;;8.43;;
12601;SDS011;30282;16.436;99.370;2023-08-01T02:10:05;23.63;;;8.63;;
12601;SDS011;30282;16.436;99.370;2023-08-01T02:12:37;20.33;;;8.07;;
12601;SDS011;30282;16.436;99.370;2023-08-01T02:15:07;22.37;;;8.17;;
12601;SDS011;30282;16.436;99.370;2023-08-01T02:17:36;29.37;;;7.47;;
12601;SDS011;30282;16.436;99.370;2023-08-01T02:20:06;25.70;;;8.00;;
12601;SDS011;30282;16.436;99.370;2023-08-01T02:22:37;29.70;;;9.40;;
12601;SDS011;30282;16.436;99.370;2023-08-01T02:25:06;27.90;;;8.90;;
12601;SDS011;30282;16.436;99.370;2023-08-01T02:27:35;30.43;;;9.33;;
12601;SDS011;30282;16.436;99.370;2023-08-01T02:30:05;22.10;;;8.50;;
12601;SDS011;30282;16.436;99.370;2023-08-01T02:32:35;26.63;;;8.47;;
12601;SDS011;30282;16.436;99.370;2023-08-01T02:35:07;29.40;;;9.77;;
12601;SDS011;30282;16.436;99.370;2023-08-01T02:37:38;28.80;;;8.23;;
12601;SDS011;30282;16.436;99.370;2023-08-01T02:40:08;26.73;;;8.87;;
12601;SDS011;30282;16.436;99.370;2023-08-01T02:42:38;30.27;;;9.37;;
12601;SDS011;30282;16.436;99.370;2023-08-01T02:45:07;24.00;;;7.53;;
12601;SDS011;30282;16.436;99.370;2023-08-01T02:47:36;30.13;;;8.60;;
12601;SDS011;30282;16.436;99.370;2023-08-01T02:50:06;21.33;;;7.90;;
12601;SDS011;30282;16.436;99.370;2023-08-01T02:52:40;33.07;;;8.97;;
12601;SDS011;30282;16.436;99.370;2023-08-01T02:55:10;34.03;;;8.40;;
12601;SDS011;30282;16.436;99.370;2023-08-01T02:57:39;20.20;;;7.70;;
12601;SDS011;30282;16.436;99.370;2023-08-01T03:00:08;26.63;;;8.10;;
12601;SDS011;30282;16.436;99.370;2023-08-01T03:02:38;32.57;;;10.10;;
12601;SDS011;30282;16.436;99.370;2023-08-01T03:05:07;20.13;;;7.77;;
12601;SDS011;30282;16.436;99.370;2023-08-01T03:07:50;24.03;;;9.03;;
12601;SDS011;30282;16.436;99.370;2023-08-01T03:10:20;24.13;;;7.40;;
12601;SDS011;30282;16.436;99.370;2023-08-01T03:12:49;22.77;;;7.83;;
12601;SDS011;30282;16.436;99.370;2023-08-01T03:15:18;28.17;;;8.70;;
12601;SDS011;30282;16.436;99.370;2023-08-01T03:17:48;22.83;;;8.40;;
12601;SDS011;30282;16.436;99.370;2023-08-01T03:20:18;24.70;;;8.13;;
12601;SDS011;30282;16.436;99.370;2023-08-01T03:22:50;21.40;;;7.80;;
12601;SDS011;30282;16.436;99.370;2023-08-01T03:25:19;20.50;;;8.87;;
12601;SDS011;30282;16.436;99.370;2023-08-01T03:27:48;25.20;;;8.40;;
12601;SDS011;30282;16.436;99.370;2023-08-01T03:30:18;26.20;;;10.17;;
12601;SDS011;30282;16.436;99.370;2023-08-01T03:32:47;24.53;;;8.97;;
12601;SDS011;30282;16.436;99.370;2023-08-01T03:35:17;24.90;;;8.27;;
12601;SDS011;30282;16.436;99.370;2023-08-01T03:37:46;22.37;;;7.03;;
12601;SDS011;30282;16.436;99.370;2023-08-01T03:40:17;19.70;;;8.73;;
12601;SDS011;30282;16.436;99.370;2023-08-01T03:42:47;32.07;;;9.30;;
12601;SDS011;30282;16.436;99.370;2023-08-01T03:45:16;26.17;;;8.40;;
12601;SDS011;30282;16.436;99.370;2023-08-01T03:47:45;36.70;;;9.23;;
12601;SDS011;30282;16.436;99.370;2023-08-01T03:50:15;24.10;;;8.47;;
12601;SDS011;30282;16.436;99.370;2023-08-01T03:52:44;27.87;;;8.80;;
12601;SDS011;30282;16.436;99.370;2023-08-01T03:55:13;28.77;;;8.20;;
12601;SDS011;30282;16.436;99.370;2023-08-01T03:57:45;27.50;;;8.80;;
12601;SDS011;30282;16.436;99.370;2023-08-01T04:00:14;31.47;;;7.80;;
12601;SDS011;30282;16.436;99.370;2023-08-01T04:02:44;18.47;;;7.77;;
12601;SDS011;30282;16.436;99.370;2023-08-01T04:05:13;16.73;;;6.87;;
12601;SDS011;30282;16.436;99.370;2023-08-01T04:07:42;21.30;;;7.83;;
12601;SDS011;30282;16.436;99.370;2023-08-01T04:10:12;22.73;;;7.73;;
12601;SDS011;30282;16.436;99.370;2023-08-01T04:12:41;17.67;;;7.23;;
12601;SDS011;30282;16.436;99.370;2023-08-01T04:15:12;21.30;;;7.43;;
12601;SDS011;30282;16.436;99.370;2023-08-01T04:17:41;21.57;;;7.67;;
12601;SDS011;30282;16.436;99.370;2023-08-01T04:20:11;22.30;;;7.90;;
12601;SDS011;30282;16.436;99.370;2023-08-01T04:22:40;23.53;;;8.47;;
12601;SDS011;30282;16.436;99.370;2023-08-01T04:25:09;23.97;;;7.63;;
12601;SDS011;30282;16.436;99.370;2023-08-01T04:27:38;21.77;;;7.67;;
12601;SDS011;30282;16.436;99.370;2023-08-01T04:30:10;16.17;;;6.63;;
12601;SDS011;30282;16.436;99.370;2023-08-01T04:32:39;30.50;;;8.27;;
12601;SDS011;30282;16.436;99.370;2023-08-01T04:35:09;22.17;;;7.43;;
12601;SDS011;30282;16.436;99.370;2023-08-01T04:37:38;17.40;;;6.87;;
12601;SDS011;30282;16.436;99.370;2023-08-01T04:40:08;29.07;;;7.90;;
12601;SDS011;30282;16.436;99.370;2023-08-01T04:42:37;16.03;;;7.50;;
12601;SDS011;30282;16.436;99.370;2023-08-01T04:45:07;24.50;;;7.50;;
12601;SDS011;30282;16.436;99.370;2023-08-01T04:47:38;31.27;;;7.17;;
12601;SDS011;30282;16.436;99.370;2023-08-01T04:50:08;20.40;;;6.53;;
12601;SDS011;30282;16.436;99.370;2023-08-01T04:52:37;21.03;;;6.40;;
12601;SDS011;30282;16.436;99.370;2023-08-01T04:55:07;25.87;;;6.50;;
12601;SDS011;30282;16.436;99.370;2023-08-01T04:57:39;18.60;;;7.70;;
12601;SDS011;30282;16.436;99.370;2023-08-01T05:00:11;21.83;;;7.50;;
12601;SDS011;30282;16.436;99.370;2023-08-01T05:02:41;28.53;;;9.03;;
12601;SDS011;30282;16.436;99.370;2023-08-01T05:05:10;23.30;;;6.50;;
12601;SDS011;30282;16.436;99.370;2023-08-01T05:07:39;20.77;;;5.93;;
12601;SDS011;30282;16.436;99.370;2023-08-01T05:10:09;19.60;;;6.77;;
12601;SDS011;30282;16.436;99.370;2023-08-01T05:12:39;20.67;;;5.70;;
12601;SDS011;30282;16.436;99.370;2023-08-01T05:15:08;18.83;;;5.30;;
12601;SDS011;30282;16.436;99.370;2023-08-01T05:17:39;20.30;;;6.20;;
12601;SDS011;30282;16.436;99.370;2023-08-01T05:20:09;24.53;;;6.40;;
12601;SDS011;30282;16.436;99.370;2023-08-01T05:25:31;19.80;;;5.87;;
12601;SDS011;30282;16.436;99.370;2023-08-01T05:28:00;19.43;;;6.10;;
12601;SDS011;30282;16.436;99.370;2023-08-01T05:30:31;20.27;;;6.17;;
12601;SDS011;30282;16.436;99.370;2023-08-01T05:33:00;18.97;;;6.23;;
12601;SDS011;30282;16.436;99.370;2023-08-01T05:35:30;21.93;;;6.00;;
12601;SDS011;30282;16.436;99.370;2023-08-01T05:37:59;25.43;;;6.87;;
12601;SDS011;30282;16.436;99.370;2023-08-01T05:40:28;21.60;;;6.67;;
12601;SDS011;30282;16.436;99.370;2023-08-01T05:42:58;23.53;;;6.43;;
12601;SDS011;30282;16.436;99.370;2023-08-01T05:45:31;27.87;;;7.17;;
12601;SDS011;30282;16.436;99.370;2023-08-01T05:48:00;16.10;;;6.03;;
12601;SDS011;30282;16.436;99.370;2023-08-01T05:50:30;23.57;;;7.43;;
12601;SDS011;30282;16.436;99.370;2023-08-01T05:52:59;16.13;;;5.70;;
12601;SDS011;30282;16.436;99.370;2023-08-01T05:55:28;24.20;;;5.83;;
12601;SDS011;30282;16.436;99.370;2023-08-01T05:57:58;18.67;;;6.20;;
12601;SDS011;30282;16.436;99.370;2023-08-01T06:00:27;19.73;;;6.40;;
12601;SDS011;30282;16.436;99.370;2023-08-01T06:02:58;17.27;;;5.77;;
12601;SDS011;30282;16.436;99.370;2023-08-01T06:05:28;17.30;;;6.00;;
12601;SDS011;30282;16.436;99.370;2023-08-01T06:07:57;17.10;;;7.23;;
12601;SDS011;30282;16.436;99.370;2023-08-01T06:10:26;19.73;;;6.83;;
12601;SDS011;30282;16.436;99.370;2023-08-01T06:12:56;21.83;;;6.60;;
12601;SDS011;30282;16.436;99.370;2023-08-01T06:15:25;18.20;;;5.50;;
12601;SDS011;30282;16.436;99.370;2023-08-01T06:18:05;17.30;;;6.27;;
12601;SDS011;30282;16.436;99.370;2023-08-01T06:20:37;17.43;;;6.07;;
12601;SDS011;30282;16.436;99.370;2023-08-01T06:23:06;16.57;;;6.33;;
12601;SDS011;30282;16.436;99.370;2023-08-01T06:25:36;17.63;;;5.67;;
12601;SDS011;30282;16.436;99.370;2023-08-01T06:28:05;27.53;;;6.47;;
12601;SDS011;30282;16.436;99.370;2023-08-01T06:30:34;20.93;;;6.23;;
12601;SDS011;30282;16.436;99.370;2023-08-01T06:33:05;17.97;;;6.13;;
12601;SDS011;30282;16.436;99.370;2023-08-01T06:35:34;18.73;;;7.20;;
12601;SDS011;30282;16.436;99.370;2023-08-01T06:38:04;33.47;;;13.70;;
12601;SDS011;30282;16.436;99.370;2023-08-01T06:40:33;23.47;;;8.33;;
12601;SDS011;30282;16.436;99.370;2023-08-01T06:43:02;27.60;;;7.87;;
12601;SDS011;30282;16.436;99.370;2023-08-01T06:45:31;18.97;;;5.93;;
12601;SDS011;30282;16.436;99.370;2023-08-01T06:48:01;15.90;;;6.00;;
12601;SDS011;30282;16.436;99.370;2023-08-01T06:50:32;20.60;;;6.93;;
12601;SDS011;30282;16.436;99.370;2023-08-01T06:53:01;14.97;;;6.40;;
12601;SDS011;30282;16.436;99.370;2023-08-01T06:55:30;21.20;;;6.20;;
12601;SDS011;30282;16.436;99.370;2023-08-01T06:57:59;18.83;;;6.40;;
12601;SDS011;30282;16.436;99.370;2023-08-01T07:00:29;19.47;;;6.60;;
12601;SDS011;30282;16.436;99.370;2023-08-01T07:02:58;20.10;;;6.00;;
12601;SDS011;30282;16.436;99.370;2023-08-01T07:05:27;27.97;;;8.63;;
12601;SDS011;30282;16.436;99.370;2023-08-01T07:07:58;22.50;;;8.10;;
12601;SDS011;30282;16.436;99.370;2023-08-01T07:10:28;16.50;;;6.83;;
12601;SDS011;30282;16.436;99.370;2023-08-01T07:12:57;21.83;;;7.40;;
12601;SDS011;30282;16.436;99.370;2023-08-01T07:15:29;16.97;;;5.97;;
12601;SDS011;30282;16.436;99.370;2023-08-01T07:17:58;21.93;;;6.93;;
12601;SDS011;30282;16.436;99.370;2023-08-01T07:20:28;20.63;;;5.37;;
12601;SDS011;30282;16.436;99.370;2023-08-01T07:22:59;11.70;;;4.30;;
12601;SDS011;30282;16.436;99.370;2023-08-01T07:25:28;10.33;;;3.97;;
12601;SDS011;30282;16.436;99.370;2023-08-01T07:27:57;13.63;;;4.17;;
12601;SDS011;30282;16.436;99.370;2023-08-01T07:30:27;12.40;;;4.40;;
12601;SDS011;30282;16.436;99.370;2023-08-01T07:32:56;13.50;;;3.70;;
12601;SDS011;30282;16.436;99.370;2023-08-01T07:35:26;14.57;;;4.03;;
12601;SDS011;30282;16.436;99.370;2023-08-01T07:37:55;12.60;;;4.50;;
12601;SDS011;30282;16.436;99.370;2023-08-01T07:40:26;7.30;;;3.77;;
12601;SDS011;30282;16.436;99.370;2023-08-01T07:42:55;10.00;;;3.10;;
12601;SDS011;30282;16.436;99.370;2023-08-01T07:45:27;14.03;;;4.43;;
12601;SDS011;30282;16.436;99.370;2023-08-01T07:47:56;10.47;;;4.53;;
12601;SDS011;30282;16.436;99.370;2023-08-01T07:50:25;12.97;;;3.80;;
12601;SDS011;30282;16.436;99.370;2023-08-01T07:52:55;14.40;;;3.90;;
12601;SDS011;30282;16.436;99.370;2023-08-01T07:55:26;16.83;;;3.80;;
12601;SDS011;30282;16.436;99.370;2023-08-01T07:57:55;14.50;;;3.93;;
12601;SDS011;30282;16.436;99.370;2023-08-01T08:00:24;9.70;;;3.87;;
12601;SDS011;30282;16.436;99.370;2023-08-01T08:02:54;13.43;;;3.70;;
12601;SDS011;30282;16.436;99.370;2023-08-01T08:05:23;12.23;;;4.20;;
12601;SDS011;30282;16.436;99.370;2023-08-01T08:07:52;15.03;;;4.33;;
12601;SDS011;30282;16.436;99.370;2023-08-01T08:10:21;8.90;;;3.23;;
12601;SDS011;30282;16.436;99.370;2023-08-01T08:12:52;10.70;;;4.67;;
12601;SDS011;30282;16.436;99.370;2023-08-01T08:15:22;11.37;;;4.27;;
12601;SDS011;30282;16.436;99.370;2023-08-01T08:17:51;10.30;;;3.93;;
12601;SDS011;30282;16.436;99.370;2023-08-01T08:20:21;11.07;;;4.53;;
12601;SDS011;30282;16.436;99.370;2023-08-01T08:22:50;17.07;;;4.43;;
12601;SDS011;30282;16.436;99.370;2023-08-01T08:25:19;16.17;;;4.37;;
12601;SDS011;30282;16.436;99.370;2023-08-01T08:27:48;17.90;;;5.30;;
12601;SDS011;30282;16.436;99.370;2023-08-01T08:30:20;21.03;;;4.50;;
12601;SDS011;30282;16.436;99.370;2023-08-01T08:32:49;16.97;;;4.80;;
12601;SDS011;30282;16.436;99.370;2023-08-01T08:35:19;24.90;;;4.80;;
12601;SDS011;30282;16.436;99.370;2023-08-01T08:37:48;17.67;;;5.10;;
12601;SDS011;30282;16.436;99.370;2023-08-01T08:40:17;11.57;;;4.53;;
12601;SDS011;30282;16.436;99.370;2023-08-01T08:42:47;13.87;;;5.60;;
12601;SDS011;30282;16.436;99.370;2023-08-01T08:45:19;17.00;;;5.50;;
12601;SDS011;30282;16.436;99.370;2023-08-01T08:47:52;12.17;;;4.50;;
12601;SDS011;30282;16.436;99.370;2023-08-01T08:50:24;12.07;;;4.53;;
12601;SDS011;30282;16.436;99.370;2023-08-01T08:52:54;17.00;;;5.00;;
12601;SDS011;30282;16.436;99.370;2023-08-01T08:55:23;22.07;;;5.60;;
12601;SDS011;30282;16.436;99.370;2023-08-01T08:57:53;15.60;;;4.30;;
12601;SDS011;30282;16.436;99.370;2023-08-01T09:00:25;24.43;;;4.90;;
12601;SDS011;30282;16.436;99.370;2023-08-01T09:02:55;12.90;;;5.07;;
12601;SDS011;30282;16.436;99.370;2023-08-01T09:05:27;13.93;;;4.87;;
12601;SDS011;30282;16.436;99.370;2023-08-01T09:08:06;18.73;;;4.90;;
12601;SDS011;30282;16.436;99.370;2023-08-01T09:10:39;19.87;;;5.60;;
12601;SDS011;30282;16.436;99.370;2023-08-01T09:13:09;14.00;;;5.27;;
12601;SDS011;30282;16.436;99.370;2023-08-01T09:15:40;14.10;;;4.77;;
12601;SDS011;30282;16.436;99.370;2023-08-01T09:18:11;15.10;;;5.63;;
12601;SDS011;30282;16.436;99.370;2023-08-01T09:20:44;18.50;;;6.70;;
12601;SDS011;30282;16.436;99.370;2023-08-01T09:23:14;15.40;;;5.53;;
12601;SDS011;30282;16.436;99.370;2023-08-01T09:25:44;20.43;;;5.87;;
12601;SDS011;30282;16.436;99.370;2023-08-01T09:28:17;17.20;;;4.60;;
12601;SDS011;30282;16.436;99.370;2023-08-01T09:30:50;14.93;;;4.80;;
12601;SDS011;30282;16.436;99.370;2023-08-01T09:33:23;11.70;;;4.57;;
12601;SDS011;30282;16.436;99.370;2023-08-01T09:35:52;20.43;;;5.10;;
12601;SDS011;30282;16.436;99.370;2023-08-01T09:38:22;13.87;;;4.50;;
12601;SDS011;30282;16.436;99.370;2023-08-01T09:40:52;14.43;;;4.50;;
12601;SDS011;30282;16.436;99.370;2023-08-01T09:43:22;10.17;;;4.63;;
12601;SDS011;30282;16.436;99.370;2023-08-01T09:45:53;14.40;;;4.27;;
12601;SDS011;30282;16.436;99.370;2023-08-01T09:48:26;20.30;;;4.40;;
12601;SDS011;30282;16.436;99.370;2023-08-01T09:51:05;13.47;;;5.00;;
12601;SDS011;30282;16.436;99.370;2023-08-01T09:53:36;16.60;;;4.67;;
12601;SDS011;30282;16.436;99.370;2023-08-01T09:56:15;21.30;;;5.00;;
12601;SDS011;30282;16.436;99.370;2023-08-01T09:58:48;14.70;;;5.17;;
12601;SDS011;30282;16.436;99.370;2023-08-01T10:01:20;26.43;;;5.40;;
12601;SDS011;30282;16.436;99.370;2023-08-01T10:03:50;13.30;;;4.67;;
12601;SDS011;30282;16.436;99.370;2023-08-01T10:06:21;13.40;;;5.00;;
12601;SDS011;30282;16.436;99.370;2023-08-01T10:08:51;29.97;;;6.00;;
12601;SDS011;30282;16.436;99.370;2023-08-01T10:11:21;32.83;;;7.10;;
12601;SDS011;30282;16.436;99.370;2023-08-01T10:13:51;19.40;;;6.03;;
12601;SDS011;30282;16.436;99.370;2023-08-01T10:16:23;20.57;;;6.10;;
12601;SDS011;30282;16.436;99.370;2023-08-01T10:18:53;23.87;;;7.00;;
12601;SDS011;30282;16.436;99.370;2023-08-01T10:21:24;22.90;;;6.77;;
12601;SDS011;30282;16.436;99.370;2023-08-01T10:23:54;31.43;;;6.20;;
12601;SDS011;30282;16.436;99.370;2023-08-01T10:26:26;19.17;;;5.43;;
12601;SDS011;30282;16.436;99.370;2023-08-01T10:28:55;20.60;;;6.33;;
12601;SDS011;30282;16.436;99.370;2023-08-01T10:31:27;32.43;;;5.43;;
12601;SDS011;30282;16.436;99.370;2023-08-01T10:34:04;11.60;;;3.90;;
12601;SDS011;30282;16.436;99.370;2023-08-01T10:36:36;15.13;;;3.80;;
12601;SDS011;30282;16.436;99.370;2023-08-01T10:39:05;16.50;;;5.37;;
12601;SDS011;30282;16.436;99.370;2023-08-01T10:41:35;15.07;;;4.50;;
12601;SDS011;30282;16.436;99.370;2023-08-01T10:44:08;13.90;;;4.90;;
12601;SDS011;30282;16.436;99.370;2023-08-01T10:46:51;23.53;;;4.80;;
12601;SDS011;30282;16.436;99.370;2023-08-01T10:49:32;12.07;;;3.53;;
12601;SDS011;30282;16.436;99.370;2023-08-01T10:52:03;10.37;;;3.37;;
12601;SDS011;30282;16.436;99.370;2023-08-01T10:54:43;14.20;;;3.97;;
12601;SDS011;30282;16.436;99.370;2023-08-01T10:57:15;24.53;;;5.40;;
12601;SDS011;30282;16.436;99.370;2023-08-01T10:59:45;13.13;;;3.77;;
12601;SDS011;30282;16.436;99.370;2023-08-01T11:02:22;13.83;;;3.97;;
12601;SDS011;30282;16.436;99.370;2023-08-01T11:04:56;14.13;;;3.70;;
12601;SDS011;30282;16.436;99.370;2023-08-01T11:07:28;16.40;;;3.93;;
12601;SDS011;30282;16.436;99.370;2023-08-01T11:10:05;11.97;;;3.97;;
12601;SDS011;30282;16.436;99.370;2023-08-01T11:12:36;16.27;;;3.60;;
12601;SDS011;30282;16.436;99.370;2023-08-01T11:15:06;13.13;;;3.60;;
12601;SDS011;30282;16.436;99.370;2023-08-01T11:17:38;12.07;;;4.13;;
12601;SDS011;30282;16.436;99.370;2023-08-01T11:20:09;15.37;;;4.70;;
12601;SDS011;30282;16.436;99.370;2023-08-01T11:22:49;16.60;;;4.93;;
12601;SDS011;30282;16.436;99.370;2023-08-01T11:25:21;20.30;;;5.00;;
12601;SDS011;30282;16.436;99.370;2023-08-01T11:28:03;19.00;;;4.80;;
12601;SDS011;30282;16.436;99.370;2023-08-01T11:30:34;15.60;;;3.80;;
12601;SDS011;30282;16.436;99.370;2023-08-01T11:33:14;19.93;;;4.63;;
12601;SDS011;30282;16.436;99.370;2023-08-01T11:35:44;16.03;;;5.77;;
12601;SDS011;30282;16.436;99.370;2023-08-01T11:38:13;19.90;;;4.40;;
12601;SDS011;30282;16.436;99.370;2023-08-01T11:40:43;15.07;;;5.43;;
12601;SDS011;30282;16.436;99.370;2023-08-01T11:43:15;10.00;;;3.70;;
12601;SDS011;30282;16.436;99.370;2023-08-01T11:45:50;13.13;;;4.23;;
12601;SDS011;30282;16.436;99.370;2023-08-01T11:48:22;20.83;;;4.90;;
12601;SDS011;30282;16.436;99.370;2023-08-01T11:50:56;12.97;;;3.87;;
12601;SDS011;30282;16.436;99.370;2023-08-01T11:53:25;16.73;;;5.47;;
12601;SDS011;30282;16.436;99.370;2023-08-01T11:55:55;16.80;;;5.70;;
12601;SDS011;30282;16.436;99.370;2023-08-01T11:58:29;12.50;;;4.60;;
12601;SDS011;30282;16.436;99.370;2023-08-01T12:01:03;22.83;;;7.77;;
12601;SDS011;30282;16.436;99.370;2023-08-01T12:03:44;33.77;;;18.00;;
12601;SDS011;30282;16.436;99.370;2023-08-01T12:06:14;25.10;;;13.23;;
12601;SDS011;30282;16.436;99.370;2023-08-01T12:08:44;26.50;;;7.30;;
12601;SDS011;30282;16.436;99.370;2023-08-01T12:11:20;17.53;;;5.47;;
12601;SDS011;30282;16.436;99.370;2023-08-01T12:14:01;18.17;;;6.10;;
12601;SDS011;30282;16.436;99.370;2023-08-01T12:16:32;18.53;;;6.20;;
12601;SDS011;30282;16.436;99.370;2023-08-01T12:19:03;20.17;;;7.10;;
12601;SDS011;30282;16.436;99.370;2023-08-01T12:21:33;59.80;;;14.13;;
12601;SDS011;30282;16.436;99.370;2023-08-01T12:24:03;52.13;;;12.83;;
12601;SDS011;30282;16.436;99.370;2023-08-01T12:26:33;40.27;;;13.20;;
12601;SDS011;30282;16.436;99.370;2023-08-01T12:29:02;27.60;;;9.20;;
12601;SDS011;30282;16.436;99.370;2023-08-01T12:31:31;20.77;;;7.27;;
12601;SDS011;30282;16.436;99.370;2023-08-01T12:34:00;20.80;;;8.10;;
12601;SDS011;30282;16.436;99.370;2023-08-01T12:36:31;14.20;;;6.90;;
12601;SDS011;30282;16.436;99.370;2023-08-01T12:39:01;20.60;;;6.77;;
12601;SDS011;30282;16.436;99.370;2023-08-01T12:41:36;20.63;;;6.70;;
12601;SDS011;30282;16.436;99.370;2023-08-01T12:44:05;22.57;;;8.47;;
12601;SDS011;30282;16.436;99.370;2023-08-01T12:46:34;19.53;;;6.37;;
12601;SDS011;30282;16.436;99.370;2023-08-01T12:49:06;15.83;;;6.93;;
12601;SDS011;30282;16.436;99.370;2023-08-01T12:51:36;15.70;;;6.40;;
12601;SDS011;30282;16.436;99.370;2023-08-01T12:54:05;16.27;;;6.93;;
12601;SDS011;30282;16.436;99.370;2023-08-01T12:56:37;23.13;;;6.33;;
12601;SDS011;30282;16.436;99.370;2023-08-01T12:59:09;24.70;;;6.20;;
12601;SDS011;30282;16.436;99.370;2023-08-01T13:01:38;16.17;;;7.23;;
12601;SDS011;30282;16.436;99.370;2023-08-01T13:04:09;13.40;;;6.47;;
12601;SDS011;30282;16.436;99.370;2023-08-01T13:06:39;21.93;;;7.33;;
12601;SDS011;30282;16.436;99.370;2023-08-01T13:09:08;16.83;;;6.93;;
12601;SDS011;30282;16.436;99.370;2023-08-01T13:11:37;14.97;;;6.03;;
12601;SDS011;30282;16.436;99.370;2023-08-01T13:14:09;17.03;;;7.23;;
12601;SDS011;30282;16.436;99.370;2023-08-01T13:16:38;16.30;;;6.90;;
12601;SDS011;30282;16.436;99.370;2023-08-01T13:19:09;15.70;;;6.90;;
12601;SDS011;30282;16.436;99.370;2023-08-01T13:21:38;16.90;;;6.40;;
12601;SDS011;30282;16.436;99.370;2023-08-01T13:24:08;12.03;;;5.97;;
12601;SDS011;30282;16.436;99.370;2023-08-01T13:26:39;20.70;;;7.53;;
12601;SDS011;30282;16.436;99.370;2023-08-01T13:29:09;19.33;;;5.97;;
12601;SDS011;30282;16.436;99.370;2023-08-01T13:31:38;24.13;;;7.57;;
12601;SDS011;30282;16.436;99.370;2023-08-01T13:34:09;17.20;;;6.63;;
12601;SDS011;30282;16.436;99.370;2023-08-01T13:36:39;13.70;;;6.53;;
12601;SDS011;30282;16.436;99.370;2023-08-01T13:39:08;17.37;;;7.70;;
12601;SDS011;30282;16.436;99.370;2023-08-01T13:41:38;16.43;;;6.53;;
12601;SDS011;30282;16.436;99.370;2023-08-01T13:44:07;21.93;;;7.30;;
12601;SDS011;30282;16.436;99.370;2023-08-01T13:46:37;18.47;;;6.97;;
12601;SDS011;30282;16.436;99.370;2023-08-01T13:49:06;13.60;;;6.60;;
12601;SDS011;30282;16.436;99.370;2023-08-01T13:51:39;19.90;;;6.20;;
12601;SDS011;30282;16.436;99.370;2023-08-01T13:54:08;17.20;;;6.57;;
12601;SDS011;30282;16.436;99.370;2023-08-01T13:56:37;19.97;;;7.80;;
12601;SDS011;30282;16.436;99.370;2023-08-01T13:59:07;19.23;;;7.10;;
12601;SDS011;30282;16.436;99.370;2023-08-01T14:01:36;14.57;;;6.73;;
12601;SDS011;30282;16.436;99.370;2023-08-01T14:04:05;13.17;;;6.77;;
12601;SDS011;30282;16.436;99.370;2023-08-01T14:06:36;15.80;;;6.80;;
12601;SDS011;30282;16.436;99.370;2023-08-01T14:09:07;26.57;;;7.67;;
12601;SDS011;30282;16.436;99.370;2023-08-01T14:11:36;16.73;;;7.57;;
12601;SDS011;30282;16.436;99.370;2023-08-01T14:14:05;19.73;;;7.70;;
12601;SDS011;30282;16.436;99.370;2023-08-01T14:16:35;14.93;;;7.33;;
12601;SDS011;30282;16.436;99.370;2023-08-01T14:19:07;17.67;;;7.00;;
12601;SDS011;30282;16.436;99.370;2023-08-01T14:21:38;21.73;;;7.50;;
12601;SDS011;30282;16.436;99.370;2023-08-01T14:24:07;19.73;;;7.30;;
12601;SDS011;30282;16.436;99.370;2023-08-01T14:26:36;21.10;;;8.80;;
12601;SDS011;30282;16.436;99.370;2023-08-01T14:29:07;13.80;;;6.40;;
12601;SDS011;30282;16.436;99.370;2023-08-01T14:31:36;18.10;;;7.63;;
12601;SDS011;30282;16.436;99.370;2023-08-01T14:34:05;17.80;;;6.80;;
12601;SDS011;30282;16.436;99.370;2023-08-01T14:36:35;18.40;;;7.80;;
12601;SDS011;30282;16.436;99.370;2023-08-01T14:39:05;17.27;;;6.90;;
12601;SDS011;30282;16.436;99.370;2023-08-01T14:41:35;20.53;;;7.37;;